Terminal Aerodrome Forecast
Issued by NWS

Current Version | Previous Version | Text Only | Print | Product List | Glossary On
Versions: 1 2 3 4 5 6 7 8 9 10 11 12
676
FTUS43 KIWX 241739
TAFSBN
TAF
KSBN 241739Z 2418/2518 19012G20KT P6SM FEW250
     FM241900 20017G26KT P6SM FEW250
     FM250100 22012G18KT P6SM BKN200 WS020/23045KT
     FM250500 26010KT P6SM BKN100
     FM250800 29009KT P6SM BKN025
     FM251300 30012G20KT P6SM BKN035=

USA.gov is the U.S. government's official web portal to all federal, state and local government web resources and services.